Anderson, Nebraska
Current Conditions -  °F | °C
As of 6:15 PM on Thursday 27 Nov 2014 (Local Time) from KHDE Reporting Station
Clear Clear  
Wind Chill: -2°   Ceiling: Unl
Heat Index:   Visibility: 10mi
Dew Point: -7°   Wind: 9mph
Humidity: 53%   Direction: 150°SSE
Pressure: 30.07"   Gusts: NA
Location:  40.5251°N, 99.2414°W
Report Text: KHDE 280015Z AUTO 15008KT 10SM CLR 02/M07 A3007 RMK AO2 T00211066
Loading
Personal Weather Stations






























Interactive Weather Map New forecast layout! Learn more

10-Day Weather Forecast

Advertisements
Track Severe Weather on mobile